New Durham, New Hampshire
Current Conditions -  °F | °C
As of 10:15 AM on Friday 19 Dec 2014 (Local Time) from KLCI Reporting Station
Clear Clear  
Wind Chill: 27°   Ceiling: Unl
Heat Index: 34°   Visibility: 10mi
Dew Point: 19°   Wind: 8mph
Humidity: 56%   Direction: 300°WNW
Pressure: 29.92"   Gusts: NA
Location:  43.44°N, 71.17°W
Report Text: KLCI 191515Z AUTO 30007KT 260V320 10SM CLR 01/M07 A2992 RMK AO1
Loading
Personal Weather Stations






























Interactive Weather Map New forecast layout! Learn more

10-Day Weather Forecast

Advertisements
Track Severe Weather on mobile